• Join FlightAware (Why Join?)
  • Login
  • US Flag 
09:59AM EDT


 

Airport Tracker/Info


-or-


 

Live Flight TrackerFlight Track Log ✈ ADR726 ✈ 18-Oct-2013 ✈ LJLJ / LJU - LATI / TIA

Flight Track Log - Related Links

Times and Time Zones

All times are in EDT time to prevent confusion due to time zone crossing. See the ADR726 flight status page for this flight to view local times or setup timezone preferences in your user account.

Time Position Orientation Groundspeed Altitude Reporting Facility
EDT Latitude Longitude Course Direction KTS MPH feet Rate Location/Type
05:13PM 45.7108 15.0751 140° Southeast  Level Estimated
05:14PM 45.6251 15.1769 140° Southeast  Level Estimated
05:15PM 45.5392 15.2784 140° Southeast  Level Estimated
05:16PM 45.4532 15.3796 140° Southeast  Level Estimated
05:17PM 45.3671 15.4805 141° Southeast  Level Estimated
05:18PM 45.2810 15.5810 141° Southeast  Level Estimated
05:19PM 45.1948 15.6813 141° Southeast  Level Estimated
05:20PM 45.1084 15.7813 141° Southeast  Level Estimated
05:21PM 45.0220 15.8809 141° Southeast  Level Estimated
05:22PM 44.9355 15.9803 141° Southeast  Level Estimated
05:23PM 44.8489 16.0794 141° Southeast  Level Estimated
05:24PM 44.7623 16.1781 141° Southeast  Level Estimated
05:25PM 44.6755 16.2766 141° Southeast  Level Estimated
05:26PM 44.5887 16.3748 141° Southeast  Level Estimated
05:27PM 44.5017 16.4727 141° Southeast  Level Estimated
05:28PM 44.4147 16.5702 141° Southeast  Level Estimated
05:29PM 44.3276 16.6675 141° Southeast  Level Estimated
05:30PM 44.2405 16.7646 141° Southeast  Level Estimated
05:31PM 44.1532 16.8613 141° Southeast  Level Estimated
05:32PM 44.0659 16.9577 142° Southeast  Level Estimated
05:33PM 43.9785 17.0539 142° Southeast  Level Estimated
05:34PM 43.8910 17.1497 142° Southeast  Level Estimated
05:35PM 43.8034 17.2453 142° Southeast  Level Estimated
05:36PM 43.7157 17.3406 142° Southeast  Level Estimated
05:37PM 43.6280 17.4357 142° Southeast  Level Estimated
05:38PM 43.5402 17.5304 142° Southeast  Level Estimated
05:39PM 43.4523 17.6249 142° Southeast  Level Estimated
05:40PM 43.3643 17.7191 142° Southeast  Level Estimated
05:41PM 43.2763 17.8130 142° Southeast  Level Estimated
05:42PM 43.1881 17.9067 142° Southeast  Level Estimated
05:43PM 43.0999 18.0001 142° Southeast  Level Estimated
05:44PM 43.0117 18.0932 142° Southeast  Level Estimated
05:45PM 42.9233 18.1861 142° Southeast  Level Estimated
05:46PM 42.8349 18.2787 142° Southeast  Level Estimated
05:47PM 42.7464 18.3710 143° Southeast  Level Estimated
05:48PM 42.6578 18.4630 143° Southeast  Level Estimated
05:49PM 42.5692 18.5548 143° Southeast  Level Estimated
05:50PM 42.4804 18.6464 143° Southeast  Level Estimated
05:51PM 42.3917 18.7377 143° Southeast  Level Estimated
05:52PM 42.3028 18.8287 143° Southeast  Level Estimated
05:53PM 42.2138 18.9194 143° Southeast  Level Estimated
05:54PM 42.1248 19.0100 143° Southeast  Level Estimated
05:55PM 42.0358 19.1002 143° Southeast  Level Estimated
05:56PM 41.9466 19.1902 143° Southeast  Level Estimated
05:57PM 41.8574 19.2799 143° Southeast  Level Estimated
05:58PM 41.7681 19.3694 143° Southeast  Level Estimated
05:59PM 41.6787 19.4587 143° Southeast  Level Estimated
06:00PM 41.5893 19.5477 143° Southeast  Level Estimated
06:01PM 41.4998 19.6365 143° Southeast  Level Estimated
06:02PM 41.4147 19.7206 143° Southeast  Level Estimated
06:03PM 41.4147 19.7206 21° North  Level Estimated
06:04PM 41.4147 19.7206 21° North  Level Estimated
06:05PM 41.4147 19.7206 21° North  Level Estimated
06:06PM 41.4147 19.7206 21° North  Level Estimated
06:07PM 41.4147 19.7206 21° North  Level Estimated
06:08PM 41.4147 19.7206 21° North  Level Estimated
06:09PM 41.4147 19.7206 21° North  Level Estimated
06:10PM 41.4147 19.7206 21° North  Level Estimated
06:11PM 41.4147 19.7206 21° North  Level Estimated
06:12PM 41.4147 19.7206 21° North  Level Estimated
06:13PM 41.4147 19.7206 21° North  Level Estimated
06:14PM 41.4147 19.7206 21° North  Level Estimated
06:15PM 41.4147 19.7206 21° North  Level Estimated
06:16PM 41.4147 19.7206 21° North  Level Estimated
06:17PM 41.4147 19.7206 21° North  Level Estimated